Airport Name : Bradshaw AAF

Other Name : Pohakuloa

ICAO : PHSF

IATA : BSF

FAA : PBSF

Latitude : 19.760056

Longitude : -155.553717

Country : United States

Local Date and Time : 4/20/2018 5:55:00 PM

 

TAF (Terminal Aerodrome Forecast)

 

METAR (METeorological Aerodrome Report)

PHSF 210256Z AUTO 15010G17KT 10SM BKN045 14/09 A3030 RMK AO2 SLPNO WND DATA ESTMD T01410092 56008 $

PHSF 210156Z AUTO 16012KT 10SM FEW027 OVC041 14/10 A3030 RMK AO2 RAB13E15DZB15E22SHRAB22E34 SLPNO WND DATA ESTMD T01430096 $

PHSF 210134Z AUTO 17005KT 10SM FEW027 BKN036 BKN041 16/10 A3030 RMK AO2 RAB13E15DZB15E22SHRAB22E34 SLPNO WND DATA ESTMD $

PHSF 210113Z AUTO 00000KT 10SM -RA FEW027 BKN035 BKN050 16/09 A3031 RMK AO2 RAB13 SLPNO WND DATA ESTMD $

PHSF 210056Z AUTO 25007KT 10SM FEW030 SCT036 BKN043 BKN050 16/09 A3031 RMK AO2 SLPNO WND DATA ESTMD T01600094 $

PHSF 202356Z AUTO 25005KT 10SM SCT028 BKN033 OVC042 16/09 A3033 RMK AO2 SLPNO WND DATA ESTMD T01570087 10187 20155 57008 $